CheckWX is a tool to help pilots better visualize weather data.  It is not intended as a substitute for an official pre-flight weather briefing.

01:01:47 UTC

KGUS METAR
Grissom ARB Airport
Peru, Indiana, USA
Current

1 hour ago

KGUS 162356Z AUTO 36005KT 10SM CLR 25/19 A3006 RMK AO2 SLP178 T02530192 10294 20253 53002 $
Observed
Sep-16 @ 23:56 UTC
Wind
  • 360° at 5 KTS
Visibility
10 SM
Flight Rules
VFR
Cloud Levels
  • Clear skies
Temperature
25°C / 77°F
Dewpoint
19°C / 66°F
Humidity
69%
Altimeter
30.06" Hg
Pressure
1017.92 hPa
Previous

2 hours ago

KGUS 162256Z AUTO 35004KT 10SM CLR 27/18 A3006 RMK AO2 SLP178 T02740175 $
Observed
Sep-16 @ 22:56 UTC
Wind
  • 350° at 4 KTS
Visibility
10 SM
Flight Rules
VFR
Cloud Levels
  • Clear skies
Temperature
27°C / 81°F
Dewpoint
18°C / 64°F
Heat Index
28°C / 83°F
Humidity
58%
Altimeter
30.06" Hg
Pressure
1017.92 hPa
Previous

3 hours ago

KGUS 162156Z AUTO 33005KT 10SM CLR 28/18 A3005 RMK AO2 SLP174 T02830178 $
Observed
Sep-16 @ 21:56 UTC
Wind
  • 330° at 5 KTS
Visibility
10 SM
Flight Rules
VFR
Cloud Levels
  • Clear skies
Temperature
28°C / 82°F
Dewpoint
18°C / 64°F
Heat Index
29°C / 84°F
Humidity
55%
Altimeter
30.05" Hg
Pressure
1017.62 hPa